createdAt,value
2018-01-15T00:00:24.354Z,50.47
2018-01-15T00:00:55.926Z,50.57
2018-01-15T00:01:27.508Z,50.68
2018-01-15T00:01:59.127Z,50.77
2018-01-15T00:02:30.703Z,50.78
2018-01-15T00:03:02.278Z,50.81
2018-01-15T00:03:33.855Z,50.93
2018-01-15T00:04:05.435Z,50.97
2018-01-15T00:04:37.006Z,51.02
2018-01-15T00:05:08.637Z,50.92
2018-01-15T00:05:40.191Z,50.98
2018-01-15T00:06:11.771Z,51.02
2018-01-15T00:06:43.350Z,51.02
2018-01-15T00:07:14.962Z,51.05
2018-01-15T00:07:46.543Z,51.01
2018-01-15T00:08:18.114Z,51.38
2018-01-15T00:08:49.694Z,51.79
2018-01-15T00:09:21.304Z,51.50
2018-01-15T00:09:52.878Z,51.64
2018-01-15T00:10:24.462Z,51.41
2018-01-15T00:10:56.043Z,51.58
2018-01-15T00:11:27.640Z,51.79
2018-01-15T00:11:59.214Z,51.90
2018-01-15T00:12:30.888Z,51.68
2018-01-15T00:13:02.466Z,51.63
2018-01-15T00:13:34.071Z,51.60
2018-01-15T00:14:05.651Z,51.64
2018-01-15T00:14:37.282Z,51.87
2018-01-15T00:15:08.854Z,51.77
2018-01-15T00:15:40.474Z,51.60
2018-01-15T00:16:12.051Z,51.72
2018-01-15T00:16:43.630Z,51.76
2018-01-15T00:17:15.211Z,51.92
2018-01-15T00:17:46.791Z,51.72
2018-01-15T00:18:18.405Z,51.67
2018-01-15T00:18:49.975Z,51.73
2018-01-15T00:19:21.558Z,51.86
2018-01-15T00:19:53.171Z,51.95
2018-01-15T00:20:24.742Z,51.96
2018-01-15T00:20:56.323Z,51.88
2018-01-15T00:21:27.939Z,51.94
2018-01-15T00:21:59.514Z,51.82
2018-01-15T00:22:31.086Z,51.90
2018-01-15T00:23:02.667Z,51.87
2018-01-15T00:23:34.242Z,51.83
2018-01-15T00:24:05.822Z,51.95
2018-01-15T00:24:37.404Z,51.84
2018-01-15T00:25:08.993Z,51.94
2018-01-15T00:25:40.570Z,51.86
2018-01-15T00:26:12.187Z,51.91
2018-01-15T00:26:43.766Z,51.85
2018-01-15T00:27:15.371Z,51.89
2018-01-15T00:27:46.950Z,51.94
2018-01-15T00:28:18.527Z,51.90
2018-01-15T00:28:50.107Z,52.05
2018-01-15T00:29:21.682Z,51.99
2018-01-15T00:29:53.254Z,52.06
2018-01-15T00:30:24.841Z,52.02
2018-01-15T00:30:56.450Z,52.14
2018-01-15T00:31:28.027Z,52.13
2018-01-15T00:31:59.606Z,52.12
2018-01-15T00:32:31.231Z,52.16
2018-01-15T00:33:02.806Z,52.20
2018-01-15T00:33:34.383Z,52.21
2018-01-15T00:34:05.959Z,52.16
2018-01-15T00:34:37.534Z,52.39
2018-01-15T00:35:09.106Z,52.37
2018-01-15T00:35:40.687Z,52.43
2018-01-15T00:36:12.266Z,52.30
2018-01-15T00:36:43.840Z,52.33
2018-01-15T00:37:15.414Z,52.37
2018-01-15T00:37:46.992Z,52.40
2018-01-15T00:38:18.598Z,52.51
2018-01-15T00:38:50.171Z,52.69
2018-01-15T00:39:21.751Z,52.82
2018-01-15T00:39:53.336Z,52.66
2018-01-15T00:40:24.911Z,52.82
2018-01-15T00:40:56.483Z,52.81
2018-01-15T00:41:28.054Z,52.66
2018-01-15T00:41:59.626Z,52.67
2018-01-15T00:42:31.208Z,52.71
2018-01-15T00:43:02.831Z,52.86
2018-01-15T00:43:34.410Z,52.81
2018-01-15T00:44:05.991Z,52.78
2018-01-15T00:44:37.566Z,52.63
2018-01-15T00:45:09.147Z,52.79
2018-01-15T00:45:40.718Z,52.86
2018-01-15T00:46:12.299Z,52.71
2018-01-15T00:46:43.870Z,52.76
2018-01-15T00:47:15.451Z,52.98
2018-01-15T00:47:47.031Z,52.87
2018-01-15T00:48:18.643Z,52.96
2018-01-15T00:48:50.223Z,52.68
2018-01-15T00:49:21.803Z,52.61
2018-01-15T00:49:53.429Z,52.82
2018-01-15T00:50:25.007Z,52.82
2018-01-15T00:50:56.590Z,52.80
2018-01-15T00:51:28.162Z,52.95
2018-01-15T00:51:59.743Z,52.98
2018-01-15T00:52:31.319Z,52.98
2018-01-15T00:53:02.902Z,52.96
2018-01-15T00:53:34.483Z,52.92
2018-01-15T00:54:06.058Z,52.91
2018-01-15T00:54:37.635Z,52.88
2018-01-15T00:55:09.242Z,52.89
2018-01-15T00:55:40.831Z,52.90
2018-01-15T00:56:12.438Z,52.79
2018-01-15T00:56:44.026Z,52.78
2018-01-15T00:57:15.606Z,52.89
2018-01-15T00:57:47.187Z,52.74
2018-01-15T00:58:18.762Z,52.81
2018-01-15T00:58:50.343Z,52.90
2018-01-15T00:59:21.915Z,53.00
2018-01-15T00:59:53.488Z,52.95
2018-01-15T01:00:25.095Z,52.93
2018-01-15T01:00:56.671Z,52.97
2018-01-15T01:01:28.253Z,52.99
2018-01-15T01:01:59.842Z,52.89
2018-01-15T01:02:31.423Z,52.97
2018-01-15T01:03:03.006Z,53.04
2018-01-15T01:03:34.579Z,53.01
2018-01-15T01:04:06.154Z,52.95
2018-01-15T01:04:37.726Z,53.03
2018-01-15T01:05:09.298Z,52.96
2018-01-15T01:05:40.919Z,53.04
2018-01-15T01:06:12.499Z,53.04
2018-01-15T01:06:44.078Z,53.16
2018-01-15T01:07:15.654Z,52.97
2018-01-15T01:07:47.236Z,53.05
2018-01-15T01:08:18.812Z,53.03
2018-01-15T01:08:50.391Z,53.01
2018-01-15T01:09:21.971Z,52.96
2018-01-15T01:09:53.547Z,52.94
2018-01-15T01:10:25.129Z,53.09
2018-01-15T01:10:56.743Z,53.28
2018-01-15T01:11:28.315Z,53.38
2018-01-15T01:11:59.894Z,53.20
2018-01-15T01:12:31.478Z,53.37
2018-01-15T01:13:03.054Z,53.49
2018-01-15T01:13:34.636Z,53.79
2018-01-15T01:14:06.214Z,53.72
2018-01-15T01:14:37.794Z,53.74
2018-01-15T01:15:09.407Z,53.79
2018-01-15T01:15:40.986Z,53.83
2018-01-15T01:16:12.595Z,53.81
2018-01-15T01:16:44.171Z,53.91
2018-01-15T01:17:15.787Z,53.76
2018-01-15T01:17:47.367Z,53.92
2018-01-15T01:18:18.947Z,53.99
2018-01-15T01:18:50.527Z,53.74
2018-01-15T01:19:22.102Z,53.91
2018-01-15T01:19:53.683Z,54.09
2018-01-15T01:20:25.263Z,54.05
2018-01-15T01:20:56.843Z,54.26
2018-01-15T01:21:28.418Z,54.06
2018-01-15T01:21:59.991Z,54.31
2018-01-15T01:22:31.610Z,54.38
2018-01-15T01:23:03.186Z,54.42
2018-01-15T01:23:34.763Z,54.45
2018-01-15T01:24:06.343Z,54.54
2018-01-15T01:24:37.918Z,54.57
2018-01-15T01:25:09.490Z,54.53
2018-01-15T01:25:41.062Z,54.65
2018-01-15T01:26:12.647Z,54.69
2018-01-15T01:26:44.219Z,54.74
2018-01-15T01:27:15.803Z,55.15
2018-01-15T01:27:47.422Z,54.78
2018-01-15T01:28:18.994Z,54.63
2018-01-15T01:28:50.571Z,54.58
2018-01-15T01:29:22.151Z,54.82
2018-01-15T01:29:53.732Z,54.93
2018-01-15T01:30:25.315Z,54.77
2018-01-15T01:30:56.898Z,54.65
2018-01-15T01:31:28.470Z,55.08
2018-01-15T01:32:00.052Z,54.65
2018-01-15T01:32:31.634Z,54.83
2018-01-15T01:33:03.243Z,54.79
2018-01-15T01:33:34.823Z,55.09
2018-01-15T01:34:06.398Z,54.84
2018-01-15T01:34:37.975Z,54.93
2018-01-15T01:35:09.551Z,54.95
2018-01-15T01:35:41.127Z,55.33
2018-01-15T01:36:12.711Z,54.93
2018-01-15T01:36:44.292Z,55.27
2018-01-15T01:37:15.914Z,55.78
2018-01-15T01:37:47.486Z,55.47
2018-01-15T01:38:19.063Z,55.63
2018-01-15T01:38:50.639Z,55.83
2018-01-15T01:39:22.214Z,55.87
2018-01-15T01:39:53.790Z,56.16
2018-01-15T01:40:25.371Z,56.34
2018-01-15T01:40:56.942Z,56.19
2018-01-15T01:41:28.521Z,56.08
2018-01-15T01:42:00.098Z,56.00
2018-01-15T01:42:31.706Z,56.05
2018-01-15T01:43:03.278Z,55.97
2018-01-15T01:43:34.860Z,56.16
2018-01-15T01:44:06.438Z,55.75
2018-01-15T01:44:38.022Z,55.96
2018-01-15T01:45:09.594Z,56.17
2018-01-15T01:45:41.211Z,55.93
2018-01-15T01:46:12.791Z,56.11
2018-01-15T01:46:44.362Z,56.15
2018-01-15T01:47:15.942Z,55.98
2018-01-15T01:47:47.519Z,55.84
2018-01-15T01:48:19.099Z,56.21
2018-01-15T01:48:50.962Z,56.14
2018-01-15T01:49:22.534Z,56.04
2018-01-15T01:49:54.110Z,55.89
2018-01-15T01:50:25.682Z,56.20
2018-01-15T01:50:57.259Z,56.14
2018-01-15T01:51:28.840Z,56.07
2018-01-15T01:52:00.414Z,55.93
2018-01-15T01:52:31.992Z,56.05
2018-01-15T01:53:03.574Z,55.85
2018-01-15T01:53:35.147Z,55.84
2018-01-15T01:54:06.723Z,56.07
2018-01-15T01:54:38.303Z,56.07
2018-01-15T01:55:09.883Z,56.34
2018-01-15T01:55:41.458Z,55.91
2018-01-15T01:56:13.031Z,56.03
2018-01-15T01:56:44.611Z,56.37
2018-01-15T01:57:16.187Z,57.05
2018-01-15T01:57:47.762Z,56.39
2018-01-15T01:58:19.346Z,56.46
2018-01-15T01:58:50.918Z,56.33
2018-01-15T01:59:22.539Z,56.53
2018-01-15T01:59:54.123Z,56.33
2018-01-15T02:00:25.703Z,56.62
2018-01-15T02:00:57.286Z,56.28
2018-01-15T02:01:28.867Z,56.52
2018-01-15T02:02:00.442Z,56.50
2018-01-15T02:02:32.058Z,56.40
2018-01-15T02:03:03.638Z,56.25
2018-01-15T02:03:35.220Z,56.89
2018-01-15T02:04:06.795Z,57.01
2018-01-15T02:04:38.374Z,57.03
2018-01-15T02:05:09.951Z,56.92
2018-01-15T02:05:41.530Z,56.67
2018-01-15T02:06:13.102Z,56.40
2018-01-15T02:06:44.679Z,56.37
2018-01-15T02:07:16.250Z,56.15
2018-01-15T02:07:47.858Z,55.37
2018-01-15T02:08:19.435Z,54.85
2018-01-15T02:08:51.006Z,54.75
2018-01-15T02:09:22.582Z,54.64
2018-01-15T02:09:54.165Z,54.70
2018-01-15T02:10:25.744Z,54.71
2018-01-15T02:10:57.358Z,54.65
2018-01-15T02:11:28.939Z,54.70
2018-01-15T02:12:00.519Z,54.90
2018-01-15T02:12:32.103Z,54.80
2018-01-15T02:13:03.683Z,54.85
2018-01-15T02:13:35.296Z,54.82
2018-01-15T02:14:06.878Z,54.97
2018-01-15T02:14:38.459Z,55.10
2018-01-15T02:15:10.039Z,55.02
2018-01-15T02:15:41.630Z,55.39
2018-01-15T02:16:13.210Z,55.22
2018-01-15T02:16:44.782Z,55.46
2018-01-15T02:17:16.363Z,55.49
2018-01-15T02:17:47.975Z,55.28
2018-01-15T02:18:19.555Z,55.00
2018-01-15T02:18:51.138Z,55.16
2018-01-15T02:19:22.714Z,55.31
2018-01-15T02:19:54.295Z,55.71
2018-01-15T02:20:25.871Z,55.24
2018-01-15T02:20:57.442Z,55.15
2018-01-15T02:21:29.018Z,55.14
2018-01-15T02:22:00.599Z,55.19
2018-01-15T02:22:32.175Z,55.41
2018-01-15T02:23:03.787Z,55.15
2018-01-15T02:23:35.363Z,55.22
2018-01-15T02:24:06.942Z,55.21
2018-01-15T02:24:38.514Z,55.36
2018-01-15T02:25:10.091Z,55.35
2018-01-15T02:25:41.671Z,55.44
2018-01-15T02:26:13.247Z,55.30
2018-01-15T02:26:44.826Z,55.51
2018-01-15T02:27:16.407Z,55.46
2018-01-15T02:27:48.023Z,55.38
2018-01-15T02:28:19.603Z,55.75
2018-01-15T02:28:51.179Z,55.53
2018-01-15T02:29:22.763Z,55.65
2018-01-15T02:29:54.343Z,55.91
2018-01-15T02:30:25.915Z,55.72
2018-01-15T02:30:57.494Z,56.03
2018-01-15T02:31:29.075Z,55.88
2018-01-15T02:32:00.652Z,55.62
2018-01-15T02:32:32.231Z,55.68
2018-01-15T02:33:03.846Z,55.51
2018-01-15T02:33:35.423Z,55.32
2018-01-15T02:34:07.039Z,55.27
2018-01-15T02:34:38.615Z,55.34
2018-01-15T02:35:10.195Z,55.25
2018-01-15T02:35:41.775Z,55.31
2018-01-15T02:36:13.350Z,55.14
2018-01-15T02:36:44.931Z,55.23
2018-01-15T02:37:16.506Z,55.21
2018-01-15T02:37:48.115Z,55.23
2018-01-15T02:38:19.693Z,55.11
2018-01-15T02:38:51.273Z,55.15
2018-01-15T02:39:22.890Z,55.03
2018-01-15T02:39:54.471Z,55.06
2018-01-15T02:40:26.047Z,55.00
2018-01-15T02:40:57.622Z,54.88
2018-01-15T02:41:29.197Z,54.95
2018-01-15T02:42:00.771Z,54.91
2018-01-15T02:42:32.346Z,55.26
2018-01-15T02:43:03.919Z,55.05
2018-01-15T02:43:35.495Z,55.41
2018-01-15T02:44:07.099Z,55.51
2018-01-15T02:44:38.710Z,55.70
2018-01-15T02:45:10.295Z,55.52
2018-01-15T02:45:41.871Z,55.50
2018-01-15T02:46:13.450Z,55.62
2018-01-15T02:46:45.032Z,55.60
2018-01-15T02:47:16.610Z,55.35
2018-01-15T02:47:48.183Z,55.56
2018-01-15T02:48:19.759Z,55.54
2018-01-15T02:48:51.340Z,55.53
2018-01-15T02:49:22.958Z,55.54
2018-01-15T02:49:54.566Z,55.61
2018-01-15T02:50:26.175Z,55.47
2018-01-15T02:50:57.751Z,55.55
2018-01-15T02:51:29.323Z,55.42
2018-01-15T02:52:00.903Z,55.44
2018-01-15T02:52:32.480Z,55.46
2018-01-15T02:53:04.054Z,55.51
2018-01-15T02:53:35.635Z,55.46
2018-01-15T02:54:07.215Z,55.70
2018-01-15T02:54:38.846Z,55.50
2018-01-15T02:55:10.426Z,55.43
2018-01-15T02:55:42.007Z,55.50
2018-01-15T02:56:13.586Z,55.28
2018-01-15T02:56:45.167Z,55.46
2018-01-15T02:57:16.779Z,55.29
2018-01-15T02:57:48.350Z,55.47
2018-01-15T02:58:19.930Z,55.60
2018-01-15T02:58:51.502Z,55.30
2018-01-15T02:59:23.082Z,55.31
2018-01-15T02:59:54.658Z,55.21
2018-01-15T03:00:26.230Z,55.22
2018-01-15T03:00:57.806Z,55.19
2018-01-15T03:01:29.386Z,55.26
2018-01-15T03:02:01.003Z,55.24
2018-01-15T03:02:32.583Z,55.14
2018-01-15T03:03:04.163Z,55.10
2018-01-15T03:03:35.745Z,55.08
2018-01-15T03:04:07.323Z,55.12
2018-01-15T03:04:38.934Z,55.15
2018-01-15T03:05:10.503Z,55.00
2018-01-15T03:05:42.078Z,55.12
2018-01-15T03:06:13.659Z,54.98
2018-01-15T03:06:45.235Z,55.13
2018-01-15T03:07:16.851Z,54.96
2018-01-15T03:07:48.427Z,55.04
2018-01-15T03:08:19.998Z,55.09
2018-01-15T03:08:51.574Z,55.09
2018-01-15T03:09:23.155Z,55.12
2018-01-15T03:09:54.735Z,55.08
2018-01-15T03:10:26.311Z,55.09
2018-01-15T03:10:57.890Z,55.12
2018-01-15T03:11:29.463Z,55.10
2018-01-15T03:12:01.037Z,55.07
2018-01-15T03:12:32.651Z,55.13
2018-01-15T03:13:04.230Z,55.15
2018-01-15T03:13:35.807Z,55.13
2018-01-15T03:14:07.387Z,55.01
2018-01-15T03:14:38.971Z,55.13
2018-01-15T03:15:10.582Z,55.19
2018-01-15T03:15:42.154Z,55.23
2018-01-15T03:16:13.735Z,55.18
2018-01-15T03:16:45.320Z,55.41
2018-01-15T03:17:16.934Z,55.47
2018-01-15T03:17:48.515Z,55.58
2018-01-15T03:18:20.095Z,55.65
2018-01-15T03:18:51.671Z,55.58
2018-01-15T03:19:23.247Z,55.60
2018-01-15T03:19:54.823Z,55.67
2018-01-15T03:20:26.409Z,55.49
2018-01-15T03:20:57.987Z,55.67
2018-01-15T03:21:29.563Z,55.54
2018-01-15T03:22:01.143Z,55.55
2018-01-15T03:22:32.762Z,55.66
2018-01-15T03:23:04.351Z,55.51
2018-01-15T03:23:35.931Z,55.59
2018-01-15T03:24:07.511Z,55.55
2018-01-15T03:24:39.091Z,55.69
2018-01-15T03:25:10.667Z,55.62
2018-01-15T03:25:42.247Z,55.68
2018-01-15T03:26:13.828Z,55.69
2018-01-15T03:26:45.408Z,55.69
2018-01-15T03:27:17.030Z,55.64
2018-01-15T03:27:48.607Z,55.63
2018-01-15T03:28:20.182Z,55.58
2018-01-15T03:28:51.759Z,55.76
2018-01-15T03:29:23.332Z,55.72
2018-01-15T03:29:54.911Z,55.55
2018-01-15T03:30:26.492Z,55.69
2018-01-15T03:30:58.071Z,55.55
2018-01-15T03:31:29.648Z,55.55
2018-01-15T03:32:01.228Z,55.66
2018-01-15T03:32:32.807Z,55.62
2018-01-15T03:33:04.383Z,55.61
2018-01-15T03:33:35.962Z,55.52
2018-01-15T03:34:07.543Z,55.63
2018-01-15T03:34:39.124Z,55.47
2018-01-15T03:35:10.703Z,55.32
2018-01-15T03:35:42.274Z,55.40
2018-01-15T03:36:13.851Z,55.48
2018-01-15T03:36:45.715Z,55.46
2018-01-15T03:37:17.294Z,55.53
2018-01-15T03:37:48.919Z,55.45
2018-01-15T03:38:20.499Z,55.33
2018-01-15T03:38:52.079Z,55.42
2018-01-15T03:39:23.650Z,55.25
2018-01-15T03:39:55.231Z,55.38
2018-01-15T03:40:26.803Z,55.24
2018-01-15T03:40:58.378Z,55.31
2018-01-15T03:41:29.951Z,55.31
2018-01-15T03:42:01.526Z,55.19
2018-01-15T03:42:33.107Z,55.14
2018-01-15T03:43:04.714Z,55.38
2018-01-15T03:43:36.286Z,55.35
2018-01-15T03:44:07.858Z,55.56
2018-01-15T03:44:39.434Z,55.42
2018-01-15T03:45:11.015Z,55.36
2018-01-15T03:45:42.590Z,55.36
2018-01-15T03:46:14.171Z,55.40
2018-01-15T03:46:45.771Z,55.48
2018-01-15T03:47:17.352Z,55.44
2018-01-15T03:47:48.931Z,55.63
2018-01-15T03:48:20.511Z,55.55
2018-01-15T03:48:52.086Z,55.72
2018-01-15T03:49:23.663Z,55.49
2018-01-15T03:49:55.247Z,55.54
2018-01-15T03:50:26.822Z,55.34
2018-01-15T03:50:58.398Z,55.25
2018-01-15T03:51:29.979Z,55.23
2018-01-15T03:52:01.591Z,55.24
2018-01-15T03:52:33.162Z,55.18
2018-01-15T03:53:04.739Z,55.12
2018-01-15T03:53:36.314Z,55.20
2018-01-15T03:54:07.914Z,55.11
2018-01-15T03:54:39.495Z,55.10
2018-01-15T03:55:11.115Z,55.23
2018-01-15T03:55:42.691Z,55.11
2018-01-15T03:56:14.274Z,55.15
2018-01-15T03:56:45.854Z,55.48
2018-01-15T03:57:17.427Z,55.35
2018-01-15T03:57:49.002Z,55.11
2018-01-15T03:58:20.583Z,55.09
2018-01-15T03:58:52.160Z,55.08
2018-01-15T03:59:23.787Z,55.20
2018-01-15T03:59:55.362Z,55.24
2018-01-15T04:00:26.939Z,55.14
2018-01-15T04:00:58.515Z,55.10
2018-01-15T04:01:30.095Z,55.16
2018-01-15T04:02:01.675Z,55.15
2018-01-15T04:02:33.255Z,55.12
2018-01-15T04:03:04.835Z,55.31
2018-01-15T04:03:36.410Z,55.08
2018-01-15T04:04:07.991Z,55.15
2018-01-15T04:04:39.571Z,55.24
2018-01-15T04:05:11.152Z,56.00
2018-01-15T04:05:42.727Z,55.84
2018-01-15T04:06:14.311Z,55.94
2018-01-15T04:06:45.938Z,55.89
2018-01-15T04:07:17.510Z,55.89
2018-01-15T04:07:49.086Z,55.97
2018-01-15T04:08:20.662Z,55.81
2018-01-15T04:08:52.239Z,55.96
2018-01-15T04:09:23.813Z,55.97
2018-01-15T04:09:55.391Z,55.86
2018-01-15T04:10:26.967Z,55.87
2018-01-15T04:10:58.538Z,55.77
2018-01-15T04:11:30.119Z,55.87
2018-01-15T04:12:01.699Z,56.05
2018-01-15T04:12:33.279Z,55.99
2018-01-15T04:13:04.863Z,55.89
2018-01-15T04:13:36.438Z,55.97
2018-01-15T04:14:08.022Z,55.97
2018-01-15T04:14:39.594Z,56.15
2018-01-15T04:15:11.198Z,56.26
2018-01-15T04:15:42.776Z,56.53
2018-01-15T04:16:14.383Z,56.26
2018-01-15T04:16:45.962Z,56.29
2018-01-15T04:17:17.539Z,56.67
2018-01-15T04:17:49.119Z,56.29
2018-01-15T04:18:20.694Z,56.57
2018-01-15T04:18:52.275Z,56.27
2018-01-15T04:19:23.852Z,56.44
2018-01-15T04:19:55.426Z,56.25
2018-01-15T04:20:27.002Z,56.62
2018-01-15T04:20:58.578Z,56.78
2018-01-15T04:21:30.183Z,56.60
2018-01-15T04:22:01.763Z,56.88
2018-01-15T04:22:33.338Z,56.53
2018-01-15T04:23:04.918Z,56.55
2018-01-15T04:23:36.525Z,56.79
2018-01-15T04:24:08.103Z,56.62
2018-01-15T04:24:39.674Z,56.81
2018-01-15T04:25:11.251Z,56.61
2018-01-15T04:25:42.827Z,56.63
2018-01-15T04:26:14.402Z,56.66
2018-01-15T04:26:45.978Z,56.73
2018-01-15T04:27:17.551Z,56.83
2018-01-15T04:27:49.126Z,56.84
2018-01-15T04:28:20.706Z,57.14
2018-01-15T04:28:52.282Z,56.99
2018-01-15T04:29:23.863Z,56.82
2018-01-15T04:29:55.438Z,57.16
2018-01-15T04:30:27.020Z,57.07
2018-01-15T04:30:58.599Z,57.00
2018-01-15T04:31:30.211Z,56.94
2018-01-15T04:32:01.822Z,56.87
2018-01-15T04:32:33.403Z,56.94
2018-01-15T04:33:04.978Z,57.01
2018-01-15T04:33:36.594Z,56.96
2018-01-15T04:34:08.166Z,57.52
2018-01-15T04:34:39.751Z,58.03
2018-01-15T04:35:11.333Z,57.30
2018-01-15T04:35:42.916Z,57.38
2018-01-15T04:36:14.487Z,57.55
2018-01-15T04:36:46.063Z,57.64
2018-01-15T04:37:17.674Z,57.32
2018-01-15T04:37:49.250Z,57.49
2018-01-15T04:38:20.823Z,57.54
2018-01-15T04:38:52.439Z,57.47
2018-01-15T04:39:24.014Z,57.62
2018-01-15T04:39:55.595Z,57.44
2018-01-15T04:40:27.176Z,57.39
2018-01-15T04:40:58.764Z,58.11
2018-01-15T04:41:30.342Z,58.07
2018-01-15T04:42:01.915Z,58.26
2018-01-15T04:42:33.493Z,58.40
2018-01-15T04:43:05.075Z,58.11
2018-01-15T04:43:36.655Z,58.22
2018-01-15T04:44:08.234Z,58.19
2018-01-15T04:44:39.811Z,59.19
2018-01-15T04:45:11.390Z,59.17
2018-01-15T04:45:43.006Z,59.10
2018-01-15T04:46:14.583Z,59.10
2018-01-15T04:46:46.167Z,59.12
2018-01-15T04:47:17.738Z,59.28
2018-01-15T04:47:49.319Z,59.08
2018-01-15T04:48:20.903Z,59.05
2018-01-15T04:48:52.479Z,58.88
2018-01-15T04:49:24.051Z,59.28
2018-01-15T04:49:55.622Z,59.14
2018-01-15T04:50:27.202Z,59.41
2018-01-15T04:50:58.822Z,59.82
2018-01-15T04:51:30.403Z,59.48
2018-01-15T04:52:01.978Z,59.61
2018-01-15T04:52:33.552Z,60.23
2018-01-15T04:53:05.131Z,60.40
2018-01-15T04:53:36.707Z,60.17
2018-01-15T04:54:08.287Z,60.31
2018-01-15T04:54:39.862Z,60.29
2018-01-15T04:55:11.556Z,60.14
2018-01-15T04:55:43.171Z,59.98
2018-01-15T04:56:14.751Z,60.09
2018-01-15T04:56:46.326Z,59.85
2018-01-15T04:57:17.906Z,59.77
2018-01-15T04:57:49.487Z,59.51
2018-01-15T04:58:21.279Z,59.51
2018-01-15T04:58:52.854Z,59.30
2018-01-15T04:59:24.434Z,59.64
2018-01-15T04:59:56.015Z,59.64
2018-01-15T05:00:27.595Z,59.40
2018-01-15T05:00:59.166Z,59.32
2018-01-15T05:01:30.739Z,59.12
2018-01-15T05:02:02.319Z,59.36
2018-01-15T05:02:33.896Z,59.42
2018-01-15T05:03:05.474Z,59.61
2018-01-15T05:03:37.046Z,59.76
2018-01-15T05:04:08.627Z,59.43
2018-01-15T05:04:40.207Z,59.43
2018-01-15T05:05:11.786Z,59.71
2018-01-15T05:05:43.391Z,59.41
2018-01-15T05:06:14.971Z,59.24
2018-01-15T05:06:46.546Z,59.06
2018-01-15T05:07:18.127Z,59.25
2018-01-15T05:07:49.699Z,59.81
2018-01-15T05:08:21.279Z,60.12
2018-01-15T05:08:52.855Z,59.64
2018-01-15T05:09:24.475Z,59.74
2018-01-15T05:09:56.059Z,59.67
2018-01-15T05:10:27.630Z,59.45
2018-01-15T05:10:59.202Z,59.32
2018-01-15T05:11:30.782Z,59.30
2018-01-15T05:12:02.355Z,59.09
2018-01-15T05:12:33.927Z,59.27
2018-01-15T05:13:05.502Z,58.90
2018-01-15T05:13:37.079Z,58.86
2018-01-15T05:14:08.654Z,58.79
2018-01-15T05:14:40.273Z,58.82
2018-01-15T05:15:11.902Z,58.87
2018-01-15T05:15:43.483Z,58.59
2018-01-15T05:16:15.059Z,58.51
2018-01-15T05:16:46.640Z,58.67
2018-01-15T05:17:18.223Z,58.62
2018-01-15T05:17:49.803Z,58.66
2018-01-15T05:18:21.378Z,58.37
2018-01-15T05:18:52.955Z,58.41
2018-01-15T05:19:24.536Z,58.54
2018-01-15T05:19:56.115Z,58.41
2018-01-15T05:20:27.735Z,58.32
2018-01-15T05:20:59.306Z,58.62
2018-01-15T05:21:30.878Z,58.56
2018-01-15T05:22:02.450Z,58.55
2018-01-15T05:22:34.031Z,58.74
2018-01-15T05:23:05.603Z,58.65
2018-01-15T05:23:37.179Z,58.78
2018-01-15T05:24:08.756Z,58.93
2018-01-15T05:24:40.335Z,58.81
2018-01-15T05:25:11.915Z,59.02
2018-01-15T05:25:43.498Z,58.64
2018-01-15T05:26:15.074Z,58.69
2018-01-15T05:26:46.666Z,58.76
2018-01-15T05:27:18.237Z,58.59
2018-01-15T05:27:49.819Z,58.65
2018-01-15T05:28:21.390Z,58.63
2018-01-15T05:28:52.971Z,58.45
2018-01-15T05:29:24.767Z,58.57
2018-01-15T05:29:56.351Z,58.55
2018-01-15T05:30:27.926Z,58.41
2018-01-15T05:30:59.498Z,58.35
2018-01-15T05:31:31.071Z,58.44
2018-01-15T05:32:02.653Z,58.28
2018-01-15T05:32:34.235Z,58.52
2018-01-15T05:33:05.815Z,58.45
2018-01-15T05:33:37.386Z,58.34
2018-01-15T05:34:08.958Z,58.41
2018-01-15T05:34:40.571Z,58.03
2018-01-15T05:35:12.187Z,58.26
2018-01-15T05:35:43.786Z,58.00
2018-01-15T05:36:15.363Z,58.23
2018-01-15T05:36:46.938Z,57.96
2018-01-15T05:37:18.511Z,58.61
2018-01-15T05:37:50.130Z,58.65
2018-01-15T05:38:21.703Z,58.39
2018-01-15T05:38:53.274Z,58.28
2018-01-15T05:39:24.846Z,58.26
2018-01-15T05:39:56.423Z,58.46
2018-01-15T05:40:28.002Z,58.51
2018-01-15T05:40:59.578Z,58.40
2018-01-15T05:41:31.158Z,58.34
2018-01-15T05:42:02.731Z,58.41
2018-01-15T05:42:34.311Z,58.21
2018-01-15T05:43:05.887Z,58.33
2018-01-15T05:43:37.467Z,58.40
2018-01-15T05:44:09.083Z,58.18
2018-01-15T05:44:40.663Z,58.19
2018-01-15T05:45:12.235Z,58.26
2018-01-15T05:45:43.807Z,58.36
2018-01-15T05:46:15.386Z,58.12
2018-01-15T05:46:46.962Z,58.22
2018-01-15T05:47:18.647Z,57.94
2018-01-15T05:47:50.231Z,57.96
2018-01-15T05:48:21.811Z,57.94
2018-01-15T05:48:53.386Z,57.77
2018-01-15T05:49:24.997Z,58.08
2018-01-15T05:49:56.578Z,57.95
2018-01-15T05:50:28.155Z,58.11
2018-01-15T05:50:59.731Z,57.98
2018-01-15T05:51:31.311Z,57.86
2018-01-15T05:52:02.899Z,57.95
2018-01-15T05:52:34.508Z,58.21
2018-01-15T05:53:06.087Z,58.33
2018-01-15T05:53:37.658Z,58.64
2018-01-15T05:54:09.238Z,58.43
2018-01-15T05:54:40.814Z,58.18
2018-01-15T05:55:12.443Z,57.98
2018-01-15T05:55:44.035Z,57.89
2018-01-15T05:56:15.611Z,57.97
2018-01-15T05:56:47.190Z,57.76
2018-01-15T05:57:18.810Z,57.88
2018-01-15T05:57:50.427Z,57.79
2018-01-15T05:58:21.999Z,58.22
2018-01-15T05:58:53.580Z,57.87
2018-01-15T05:59:25.154Z,57.97
2018-01-15T05:59:56.735Z,57.86
2018-01-15T06:00:28.306Z,57.78
2018-01-15T06:00:59.881Z,58.03
2018-01-15T06:01:31.463Z,57.61
2018-01-15T06:02:03.042Z,57.58
2018-01-15T06:02:34.654Z,57.73
2018-01-15T06:03:06.235Z,57.52
2018-01-15T06:03:37.806Z,57.52
2018-01-15T06:04:09.382Z,57.60
2018-01-15T06:04:40.995Z,57.71
2018-01-15T06:05:12.574Z,57.59
2018-01-15T06:05:44.155Z,57.95
2018-01-15T06:06:15.726Z,57.93
2018-01-15T06:06:47.302Z,57.83
2018-01-15T06:07:18.874Z,57.96
2018-01-15T06:07:50.446Z,58.08
2018-01-15T06:08:22.023Z,57.84
2018-01-15T06:08:53.640Z,57.80
2018-01-15T06:09:25.226Z,57.79
2018-01-15T06:09:56.802Z,57.77
2018-01-15T06:10:28.378Z,57.63
2018-01-15T06:10:59.959Z,57.86
2018-01-15T06:11:31.538Z,57.93
2018-01-15T06:12:03.115Z,58.01
2018-01-15T06:12:34.689Z,58.04
2018-01-15T06:13:06.298Z,57.98
2018-01-15T06:13:37.870Z,58.08
2018-01-15T06:14:09.446Z,57.98
2018-01-15T06:14:41.027Z,58.03
2018-01-15T06:15:12.603Z,57.89
2018-01-15T06:15:44.175Z,57.90
2018-01-15T06:16:15.782Z,57.89
2018-01-15T06:16:47.362Z,57.94
2018-01-15T06:17:18.947Z,57.89
2018-01-15T06:17:50.523Z,57.89
2018-01-15T06:18:22.103Z,57.98
2018-01-15T06:18:53.683Z,57.93
2018-01-15T06:19:25.259Z,57.88
2018-01-15T06:19:56.839Z,57.88
2018-01-15T06:20:28.418Z,57.78
2018-01-15T06:21:00.022Z,57.94
2018-01-15T06:21:31.599Z,53.70
2018-01-15T06:22:03.179Z,45.89
2018-01-15T06:22:34.755Z,44.07
2018-01-15T06:23:06.335Z,43.77
2018-01-15T06:23:37.918Z,45.94
2018-01-15T06:24:09.490Z,48.94
2018-01-15T06:24:41.071Z,48.86
2018-01-15T06:25:12.642Z,49.31
2018-01-15T06:25:44.215Z,49.49
2018-01-15T06:26:15.839Z,49.65
2018-01-15T06:26:47.423Z,49.70
2018-01-15T06:27:18.999Z,49.92
2018-01-15T06:27:50.625Z,50.21
2018-01-15T06:28:22.182Z,50.33
2018-01-15T06:28:53.758Z,50.83
2018-01-15T06:29:25.406Z,50.83
2018-01-15T06:29:56.954Z,51.08
2018-01-15T06:30:28.537Z,51.32
2018-01-15T06:31:00.115Z,51.61
2018-01-15T06:31:31.727Z,51.77
2018-01-15T06:32:03.303Z,51.82
2018-01-15T06:32:34.911Z,51.70
2018-01-15T06:33:06.487Z,52.11
2018-01-15T06:33:38.063Z,52.17
2018-01-15T06:34:09.671Z,52.15
2018-01-15T06:34:41.247Z,52.38
2018-01-15T06:35:12.827Z,52.52
2018-01-15T06:35:44.406Z,52.57
2018-01-15T06:36:15.987Z,52.65
2018-01-15T06:36:47.563Z,52.75
2018-01-15T06:37:19.148Z,52.75
2018-01-15T06:37:50.778Z,52.79
2018-01-15T06:38:22.342Z,52.90
2018-01-15T06:38:53.955Z,52.98
2018-01-15T06:39:25.535Z,53.05
2018-01-15T06:39:57.115Z,53.19
2018-01-15T06:40:28.695Z,53.27
2018-01-15T06:41:00.273Z,53.26
2018-01-15T06:41:31.859Z,53.28
2018-01-15T06:42:03.434Z,53.23
2018-01-15T06:42:35.007Z,53.30
2018-01-15T06:43:06.590Z,53.21
2018-01-15T06:43:38.170Z,53.12
2018-01-15T06:44:09.783Z,53.15
2018-01-15T06:44:41.367Z,53.17
2018-01-15T06:45:12.947Z,53.09
2018-01-15T06:45:44.527Z,53.12
2018-01-15T06:46:16.110Z,53.15
2018-01-15T06:46:47.792Z,53.02